Time,TemperatureF,DewpointF,PressureIn,WindDirection,WindDirectionDegrees,WindSpeedMPH,WindSpeedGustMPH,Humidity,HourlyPrecipIn,Conditions,Clouds,dailyrainin,SoftwareType,DateUTC
2013-11-11 00:05:00,37.4,27.0,30.27,WNW,283,1.0,2.0,67,0.00,,,0.00,weatherlink.com 1.10,2013-11-11 05:05:00,
2013-11-11 00:19:00,37.4,27.0,30.27,SSW,211,1.0,2.0,67,0.00,,,0.00,weatherlink.com 1.10,2013-11-11 05:19:00,
2013-11-11 00:34:00,36.3,28.0,30.27,SSE,162,0.0,3.0,71,0.00,,,0.00,weatherlink.com 1.10,2013-11-11 05:34:00,
2013-11-11 00:50:00,35.2,28.0,30.28,SSE,162,0.0,2.0,74,0.00,,,0.00,weatherlink.com 1.10,2013-11-11 05:50:00,
2013-11-11 01:05:00,33.9,26.0,30.27,SSE,162,1.0,1.0,74,0.00,,,0.00,weatherlink.com 1.10,2013-11-11 06:05:00,
2013-11-11 01:20:00,33.2,26.0,30.28,SSE,162,0.0,1.0,76,0.00,,,0.00,weatherlink.com 1.10,2013-11-11 06:20:00,
2013-11-11 01:35:00,32.7,27.0,30.28,East,94,0.0,2.0,78,0.00,,,0.00,weatherlink.com 1.10,2013-11-11 06:35:00,
2013-11-11 01:50:00,32.4,27.0,30.29,East,94,1.0,2.0,80,0.00,,,0.00,weatherlink.com 1.10,2013-11-11 06:50:00,
2013-11-11 02:06:00,32.5,27.0,30.29,East,94,0.0,2.0,80,0.00,,,0.00,weatherlink.com 1.10,2013-11-11 07:06:00,
2013-11-11 02:21:00,31.7,27.0,30.30,East,94,0.0,1.0,81,0.00,,,0.00,weatherlink.com 1.10,2013-11-11 07:21:00,
2013-11-11 02:35:00,30.9,26.0,30.30,East,94,0.0,1.0,82,0.00,,,0.00,weatherlink.com 1.10,2013-11-11 07:35:00,
2013-11-11 02:51:00,30.7,26.0,30.29,East,88,0.0,2.0,84,0.00,,,0.00,weatherlink.com 1.10,2013-11-11 07:51:00,
2013-11-11 03:05:00,30.5,26.0,30.28,East,88,0.0,1.0,84,0.00,,,0.00,weatherlink.com 1.10,2013-11-11 08:05:00,
2013-11-11 03:21:00,30.3,26.0,30.28,East,88,0.0,1.0,85,0.00,,,0.00,weatherlink.com 1.10,2013-11-11 08:21:00,
2013-11-11 03:36:00,30.0,26.0,30.28,East,80,0.0,2.0,85,0.00,,,0.00,weatherlink.com 1.10,2013-11-11 08:36:00,
2013-11-11 03:50:00,29.7,26.0,30.28,East,80,0.0,1.0,85,0.00,,,0.00,weatherlink.com 1.10,2013-11-11 08:50:00,
2013-11-11 04:06:00,29.4,26.0,30.27,East,80,0.0,1.0,86,0.00,,,0.00,weatherlink.com 1.10,2013-11-11 09:06:00,
2013-11-11 04:20:00,29.2,26.0,30.27,East,80,0.0,1.0,87,0.00,,,0.00,weatherlink.com 1.10,2013-11-11 09:20:00,
2013-11-11 04:36:00,29.0,26.0,30.27,East,82,0.0,2.0,87,0.00,,,0.00,weatherlink.com 1.10,2013-11-11 09:36:00,
2013-11-11 04:50:00,28.9,26.0,30.27,East,82,0.0,1.0,88,0.00,,,0.00,weatherlink.com 1.10,2013-11-11 09:50:00,
2013-11-11 05:06:00,28.6,26.0,30.27,East,80,1.0,1.0,89,0.00,,,0.00,weatherlink.com 1.10,2013-11-11 10:06:00,
2013-11-11 05:20:00,28.4,26.0,30.28,East,80,0.0,1.0,89,0.00,,,0.00,weatherlink.com 1.10,2013-11-11 10:20:00,
2013-11-11 05:36:00,28.1,25.0,30.29,East,80,0.0,1.0,89,0.00,,,0.00,weatherlink.com 1.10,2013-11-11 10:36:00,
2013-11-11 05:51:00,27.9,25.0,30.29,East,80,0.0,1.0,90,0.00,,,0.00,weatherlink.com 1.10,2013-11-11 10:51:00,
2013-11-11 06:06:00,27.6,25.0,30.29,East,80,0.0,1.0,91,0.00,,,0.00,weatherlink.com 1.10,2013-11-11 11:06:00,
2013-11-11 06:21:00,27.6,25.0,30.29,East,80,0.0,1.0,91,0.00,,,0.00,weatherlink.com 1.10,2013-11-11 11:21:00,
2013-11-11 06:36:00,27.7,26.0,30.29,East,80,0.0,1.0,91,0.00,,,0.00,weatherlink.com 1.10,2013-11-11 11:36:00,
2013-11-11 06:51:00,27.7,26.0,30.29,East,80,0.0,1.0,91,0.00,,,0.00,weatherlink.com 1.10,2013-11-11 11:51:00,
2013-11-11 07:06:00,27.6,26.0,30.30,East,80,0.0,2.0,92,0.00,,,0.00,weatherlink.com 1.10,2013-11-11 12:06:00,
2013-11-11 07:21:00,27.9,26.0,30.30,East,81,0.0,1.0,92,0.00,,,0.00,weatherlink.com 1.10,2013-11-11 12:21:00,
2013-11-11 07:37:00,30.2,27.0,30.30,NNW,346,0.0,2.0,88,0.00,,,0.00,weatherlink.com 1.10,2013-11-11 12:37:00,
2013-11-11 08:00:00,30.4,27.3,30.31,NNW,344,0.0,1.0,88,0.00,,,0.00,Wunderground v.1.15,2013-11-11 13:00:00,
2013-11-11 08:07:00,30.2,27.0,30.30,NNW,344,0.0,1.0,88,0.00,,,0.00,weatherlink.com 1.10,2013-11-11 13:07:00,
2013-11-11 08:14:00,30.4,27.0,30.31,NNW,344,1.0,1.0,87,0.00,,,0.00,Wunderground v.1.15,2013-11-11 13:14:00,
2013-11-11 08:20:00,31.0,27.3,30.30,SW,229,1.0,1.0,86,0.00,,,0.00,Wunderground v.1.15,2013-11-11 13:20:00,
2013-11-11 08:28:00,31.5,28.0,30.30,WSW,245,0.0,2.0,85,0.00,,,0.00,weatherlink.com 1.10,2013-11-11 13:28:00,
2013-11-11 08:42:00,32.2,27.9,30.30,WSW,242,0.0,1.0,84,0.00,,,0.00,Wunderground v.1.15,2013-11-11 13:42:00,
2013-11-11 08:52:00,32.8,28.0,30.30,WSW,242,2.0,2.0,82,0.00,,,0.00,weatherlink.com 1.10,2013-11-11 13:52:00,
2013-11-11 09:07:00,33.8,29.0,30.30,SW,236,1.0,2.0,81,0.00,,,0.00,weatherlink.com 1.10,2013-11-11 14:07:00,
2013-11-11 09:14:00,34.4,28.6,30.29,SW,230,1.0,1.0,79,0.00,,,0.00,Wunderground v.1.15,2013-11-11 14:14:00,
2013-11-11 09:23:00,35.4,29.0,30.29,WSW,253,1.0,2.0,77,0.00,,,0.00,weatherlink.com 1.10,2013-11-11 14:23:00,
2013-11-11 09:29:00,36.0,29.2,30.28,WSW,249,1.0,2.0,76,0.00,,,0.00,Wunderground v.1.15,2013-11-11 14:29:00,
2013-11-11 09:37:00,37.2,30.0,30.28,WSW,257,1.0,2.0,74,0.00,,,0.00,weatherlink.com 1.10,2013-11-11 14:37:00,
2013-11-11 09:49:00,38.1,30.2,30.28,South,184,1.0,1.0,73,0.00,,,0.00,Wunderground v.1.15,2013-11-11 14:49:00,
2013-11-11 09:56:00,38.8,30.9,30.28,South,180,1.0,2.0,73,0.00,,,0.00,Wunderground v.1.15,2013-11-11 14:56:00,
2013-11-11 10:07:00,39.7,30.7,30.27,SSW,194,1.0,1.0,70,0.00,,,0.00,Wunderground v.1.15,2013-11-11 15:07:00,
2013-11-11 10:18:00,41.0,31.0,30.27,NW,324,2.0,3.0,68,0.00,,,0.00,weatherlink.com 1.10,2013-11-11 15:18:00,
2013-11-11 10:24:00,41.2,31.1,30.27,NW,324,1.0,1.0,67,0.00,,,0.00,Wunderground v.1.15,2013-11-11 15:24:00,
2013-11-11 10:30:00,41.8,30.5,30.27,South,176,1.0,1.0,64,0.00,,,0.00,Wunderground v.1.15,2013-11-11 15:30:00,
2013-11-11 10:36:00,42.5,30.8,30.26,South,176,0.0,1.0,63,0.00,,,0.00,Wunderground v.1.15,2013-11-11 15:36:00,
2013-11-11 10:42:00,43.0,30.5,30.27,SSE,164,1.0,1.0,61,0.00,,,0.00,Wunderground v.1.15,2013-11-11 15:42:00,
2013-11-11 10:49:00,43.3,29.9,30.26,South,191,1.0,1.0,59,0.00,,,0.00,Wunderground v.1.15,2013-11-11 15:49:00,
2013-11-11 10:55:00,43.9,30.0,30.26,SSE,150,1.0,4.0,58,0.00,,,0.00,weatherlink.com 1.10,2013-11-11 15:55:00,
2013-11-11 11:00:00,44.2,29.9,30.25,SW,226,1.0,3.0,57,0.00,,,0.00,Wunderground v.1.15,2013-11-11 16:00:00,
2013-11-11 11:07:00,44.5,29.8,30.24,SW,222,2.0,3.0,56,0.00,,,0.00,Wunderground v.1.15,2013-11-11 16:07:00,
2013-11-11 11:12:00,44.9,29.7,30.24,SE,128,1.0,2.0,55,0.00,,,0.00,Wunderground v.1.15,2013-11-11 16:12:00,
2013-11-11 11:17:00,45.2,29.5,30.23,NW,313,1.0,3.0,54,0.00,,,0.00,Wunderground v.1.15,2013-11-11 16:17:00,
2013-11-11 11:22:00,45.5,28.4,30.23,South,175,1.0,1.0,51,0.00,,,0.00,Wunderground v.1.15,2013-11-11 16:22:00,
2013-11-11 11:27:00,45.6,28.5,30.22,South,188,1.0,2.0,51,0.00,,,0.00,Wunderground v.1.15,2013-11-11 16:27:00,
2013-11-11 11:34:00,46.1,29.0,30.22,South,188,1.0,1.0,51,0.00,,,0.00,Wunderground v.1.15,2013-11-11 16:34:00,
2013-11-11 11:42:00,46.6,28.0,30.22,WNW,294,2.0,2.0,49,0.00,,,0.00,weatherlink.com 1.10,2013-11-11 16:42:00,
2013-11-11 11:49:00,47.1,28.4,30.21,NE,46,1.0,1.0,48,0.00,,,0.00,Wunderground v.1.15,2013-11-11 16:49:00,
2013-11-11 11:56:00,47.3,27.5,30.20,SSE,159,0.0,1.0,46,0.00,,,0.00,Wunderground v.1.15,2013-11-11 16:56:00,
2013-11-11 12:02:00,47.5,27.7,30.20,SSE,159,1.0,1.0,46,0.00,,,0.00,Wunderground v.1.15,2013-11-11 17:02:00,
2013-11-11 12:08:00,48.0,28.2,30.19,ENE,73,1.0,1.0,46,0.00,,,0.00,Wunderground v.1.15,2013-11-11 17:08:00,
2013-11-11 12:16:00,48.4,28.0,30.19,ENE,73,1.0,2.0,46,0.00,,,0.00,weatherlink.com 1.10,2013-11-11 17:16:00,
2013-11-11 12:36:00,49.0,29.0,30.18,NNE,28,2.0,3.0,46,0.00,,,0.00,weatherlink.com 1.10,2013-11-11 17:36:00,
2013-11-11 12:48:00,50.0,29.0,30.17,NNE,29,2.0,3.0,45,0.00,,,0.00,weatherlink.com 1.10,2013-11-11 17:48:00,
2013-11-11 12:55:00,50.2,29.0,30.17,NNE,15,0.0,3.0,45,0.00,,,0.00,weatherlink.com 1.10,2013-11-11 17:55:00,
2013-11-11 13:00:00,50.7,29.6,30.16,North,5,1.0,2.0,44,0.00,,,0.00,Wunderground v.1.15,2013-11-11 18:00:00,
2013-11-11 13:06:00,51.2,30.0,30.16,NNE,27,1.0,2.0,44,0.00,,,0.00,Wunderground v.1.15,2013-11-11 18:06:00,
2013-11-11 13:12:00,52.7,30.8,30.15,ENE,64,1.0,1.0,43,0.00,,,0.00,Wunderground v.1.15,2013-11-11 18:12:00,
2013-11-11 13:18:00,53.7,31.1,30.15,NE,35,1.0,3.0,42,0.00,,,0.00,Wunderground v.1.15,2013-11-11 18:18:00,
2013-11-11 13:24:00,54.1,29.7,30.14,NW,325,1.0,1.0,39,0.00,,,0.00,Wunderground v.1.15,2013-11-11 18:24:00,
2013-11-11 13:30:00,54.3,29.2,30.14,SSE,148,1.0,1.0,38,0.00,,,0.00,Wunderground v.1.15,2013-11-11 18:30:00,
2013-11-11 13:36:00,54.3,30.5,30.13,SW,230,1.0,1.0,40,0.00,,,0.00,Wunderground v.1.15,2013-11-11 18:36:00,
2013-11-11 13:42:00,53.9,29.5,30.13,SW,230,1.0,1.0,39,0.00,,,0.00,Wunderground v.1.15,2013-11-11 18:42:00,
2013-11-11 13:47:00,54.1,29.7,30.13,SW,214,1.0,2.0,39,0.00,,,0.00,Wunderground v.1.15,2013-11-11 18:47:00,
2013-11-11 13:53:00,54.5,29.4,30.12,SW,214,1.0,1.0,38,0.00,,,0.00,Wunderground v.1.15,2013-11-11 18:53:00,
2013-11-11 13:58:00,54.7,28.9,30.12,SW,214,1.0,1.0,37,0.00,,,0.00,Wunderground v.1.15,2013-11-11 18:58:00,
2013-11-11 14:04:00,56.0,29.4,30.12,SW,214,1.0,1.0,36,0.00,,,0.00,Wunderground v.1.15,2013-11-11 19:04:00,
2013-11-11 14:09:00,56.0,28.7,30.12,WNW,290,1.0,1.0,35,0.00,,,0.00,Wunderground v.1.15,2013-11-11 19:09:00,
2013-11-11 14:14:00,55.4,30.8,30.11,WNW,290,1.0,1.0,39,0.00,,,0.00,Wunderground v.1.15,2013-11-11 19:14:00,
2013-11-11 14:19:00,55.7,28.4,30.11,WNW,290,1.0,1.0,35,0.00,,,0.00,Wunderground v.1.15,2013-11-11 19:19:00,
2013-11-11 14:26:00,56.8,30.8,30.10,WNW,290,0.0,1.0,37,0.00,,,0.00,Wunderground v.1.15,2013-11-11 19:26:00,
2013-11-11 14:31:00,55.9,30.6,30.10,WNW,298,0.0,1.0,38,0.00,,,0.00,Wunderground v.1.15,2013-11-11 19:31:00,
2013-11-11 14:37:00,57.0,30.3,30.09,NNE,20,1.0,2.0,36,0.00,,,0.00,Wunderground v.1.15,2013-11-11 19:37:00,
2013-11-11 14:42:00,57.2,30.0,30.09,NNE,20,0.0,3.0,36,0.00,,,0.00,weatherlink.com 1.10,2013-11-11 19:42:00,
2013-11-11 14:47:00,57.4,30.6,30.09,NNE,20,0.0,1.0,36,0.00,,,0.00,Wunderground v.1.15,2013-11-11 19:47:00,
2013-11-11 14:52:00,55.9,30.6,30.09,NNE,20,0.0,1.0,38,0.00,,,0.00,Wunderground v.1.15,2013-11-11 19:52:00,
2013-11-11 14:57:00,57.0,31.6,30.09,NNE,15,1.0,2.0,38,0.00,,,0.00,Wunderground v.1.15,2013-11-11 19:57:00,
2013-11-11 15:03:00,57.0,30.3,30.09,NNE,15,1.0,1.0,36,0.00,,,0.00,Wunderground v.1.15,2013-11-11 20:03:00,
2013-11-11 15:08:00,56.0,30.1,30.09,NNE,15,0.0,1.0,37,0.00,,,0.00,Wunderground v.1.15,2013-11-11 20:08:00,
2013-11-11 15:13:00,56.9,32.2,30.08,NNE,15,0.0,1.0,39,0.00,,,0.00,Wunderground v.1.15,2013-11-11 20:13:00,
2013-11-11 15:18:00,56.4,31.1,30.08,NNE,15,0.0,1.0,38,0.00,,,0.00,Wunderground v.1.15,2013-11-11 20:18:00,
2013-11-11 15:24:00,56.3,31.6,30.08,NNE,15,0.0,0.0,39,0.00,,,0.00,Wunderground v.1.15,2013-11-11 20:24:00,
2013-11-11 15:29:00,56.1,32.1,30.08,NNE,15,0.0,0.0,40,0.00,,,0.00,Wunderground v.1.15,2013-11-11 20:29:00,
2013-11-11 15:35:00,56.1,33.3,30.08,NNE,15,0.0,1.0,42,0.00,,,0.00,Wunderground v.1.15,2013-11-11 20:35:00,
2013-11-11 15:40:00,56.6,32.5,30.08,NNE,15,0.0,0.0,40,0.00,,,0.00,Wunderground v.1.15,2013-11-11 20:40:00,
2013-11-11 15:45:00,56.6,34.3,30.08,NNE,15,0.0,1.0,43,0.00,,,0.00,Wunderground v.1.15,2013-11-11 20:45:00,
2013-11-11 15:51:00,55.7,34.1,30.08,NNE,15,1.0,1.0,44,0.00,,,0.00,Wunderground v.1.15,2013-11-11 20:51:00,
2013-11-11 15:56:00,55.7,32.9,30.08,NNE,15,0.0,1.0,42,0.00,,,0.00,Wunderground v.1.15,2013-11-11 20:56:00,
2013-11-11 16:01:00,55.9,33.7,30.08,NNE,15,0.0,0.0,43,0.00,,,0.00,Wunderground v.1.15,2013-11-11 21:01:00,
2013-11-11 16:07:00,55.6,34.0,30.08,NNE,15,0.0,0.0,44,0.00,,,0.00,Wunderground v.1.15,2013-11-11 21:07:00,
2013-11-11 16:12:00,55.3,33.7,30.08,NNE,15,0.0,0.0,44,0.00,,,0.00,Wunderground v.1.15,2013-11-11 21:12:00,
2013-11-11 16:18:00,54.9,31.6,30.08,NNE,15,0.0,0.0,41,0.00,,,0.00,Wunderground v.1.15,2013-11-11 21:18:00,
2013-11-11 16:24:00,54.5,32.4,30.08,NNE,15,0.0,0.0,43,0.00,,,0.00,Wunderground v.1.15,2013-11-11 21:24:00,
2013-11-11 16:30:00,54.1,33.0,30.08,NNE,15,0.0,0.0,45,0.00,,,0.00,weatherlink.com 1.10,2013-11-11 21:30:00,
2013-11-11 16:35:00,53.6,33.8,30.08,NNE,15,0.0,0.0,47,0.00,,,0.00,Wunderground v.1.15,2013-11-11 21:35:00,
2013-11-11 16:41:00,53.3,34.6,30.08,NNE,15,0.0,2.0,49,0.00,,,0.00,Wunderground v.1.15,2013-11-11 21:41:00,
2013-11-11 16:46:00,52.9,32.0,30.07,NNE,15,1.0,2.0,46,0.00,,,0.00,weatherlink.com 1.10,2013-11-11 21:46:00,
2013-11-11 16:52:00,52.5,33.4,30.08,NNE,15,0.0,1.0,48,0.00,,,0.00,Wunderground v.1.15,2013-11-11 21:52:00,
2013-11-11 16:57:00,52.0,34.9,30.08,North,11,1.0,1.0,52,0.00,,,0.00,Wunderground v.1.15,2013-11-11 21:57:00,
2013-11-11 17:03:00,51.7,34.1,30.08,North,11,1.0,1.0,51,0.00,,,0.00,Wunderground v.1.15,2013-11-11 22:03:00,
2013-11-11 17:08:00,51.5,34.9,30.08,North,11,0.0,1.0,53,0.00,,,0.00,Wunderground v.1.15,2013-11-11 22:08:00,
2013-11-11 17:14:00,51.2,35.1,30.08,NNE,13,0.0,1.0,54,0.00,,,0.00,Wunderground v.1.15,2013-11-11 22:14:00,
2013-11-11 17:20:00,50.9,35.7,30.08,NNE,13,1.0,1.0,56,0.00,,,0.00,Wunderground v.1.15,2013-11-11 22:20:00,
2013-11-11 17:25:00,50.5,34.9,30.08,NNE,13,0.0,1.0,55,0.00,,,0.00,Wunderground v.1.15,2013-11-11 22:25:00,
2013-11-11 17:30:00,50.3,34.0,30.07,NNE,13,0.0,1.0,55,0.00,,,0.00,weatherlink.com 1.10,2013-11-11 22:30:00,
2013-11-11 17:36:00,50.2,35.1,30.07,NNE,13,0.0,0.0,56,0.00,,,0.00,Wunderground v.1.15,2013-11-11 22:36:00,
2013-11-11 17:41:00,50.0,35.8,30.07,NNE,13,0.0,0.0,58,0.00,,,0.00,Wunderground v.1.15,2013-11-11 22:41:00,
2013-11-11 17:46:00,49.7,35.1,30.07,NNE,13,0.0,0.0,57,0.00,,,0.00,Wunderground v.1.15,2013-11-11 22:46:00,
2013-11-11 17:52:00,49.6,35.0,30.07,NNE,13,0.0,0.0,57,0.00,,,0.00,Wunderground v.1.15,2013-11-11 22:52:00,
2013-11-11 17:57:00,49.4,35.2,30.07,NNE,13,0.0,1.0,58,0.00,,,0.00,Wunderground v.1.15,2013-11-11 22:57:00,
2013-11-11 18:02:00,49.2,34.6,30.07,NNE,13,0.0,0.0,57,0.00,,,0.00,Wunderground v.1.15,2013-11-11 23:02:00,
2013-11-11 18:08:00,48.9,35.2,30.07,NNE,13,0.0,0.0,59,0.00,,,0.00,Wunderground v.1.15,2013-11-11 23:08:00,
2013-11-11 18:29:00,48.4,36.0,30.06,NNE,13,0.0,1.0,62,0.00,,,0.00,Wunderground v.1.15,2013-11-11 23:29:00,
2013-11-11 18:34:00,48.1,36.1,30.06,NNE,13,1.0,1.0,63,0.00,,,0.00,Wunderground v.1.15,2013-11-11 23:34:00,
2013-11-11 18:40:00,48.0,36.0,30.06,NNE,13,1.0,1.0,63,0.00,,,0.00,Wunderground v.1.15,2013-11-11 23:40:00,
2013-11-11 18:47:00,47.8,36.0,30.06,NNE,13,0.0,1.0,65,0.00,,,0.00,weatherlink.com 1.10,2013-11-11 23:47:00,
2013-11-11 18:53:00,47.6,36.4,30.05,NNE,13,0.0,0.0,65,0.00,,,0.00,Wunderground v.1.15,2013-11-11 23:53:00,
2013-11-11 18:59:00,47.5,36.3,30.05,NNE,13,0.0,0.0,65,0.00,,,0.00,Wunderground v.1.15,2013-11-11 23:59:00,
2013-11-11 19:05:00,47.1,37.4,30.05,NNE,13,0.0,0.0,69,0.00,,,0.00,Wunderground v.1.15,2013-11-12 00:05:00,
2013-11-11 19:10:00,47.0,37.0,30.05,NNE,13,0.0,0.0,68,0.00,,,0.00,Wunderground v.1.15,2013-11-12 00:10:00,
2013-11-11 19:15:00,46.8,37.2,30.05,NNE,13,0.0,1.0,69,0.00,,,0.00,Wunderground v.1.15,2013-11-12 00:15:00,
2013-11-11 19:21:00,46.8,37.2,30.05,NNE,13,0.0,1.0,69,0.00,,,0.00,Wunderground v.1.15,2013-11-12 00:21:00,
2013-11-11 19:27:00,46.5,37.2,30.05,NNE,13,0.0,0.0,70,0.00,,,0.00,Wunderground v.1.15,2013-11-12 00:27:00,
2013-11-11 19:32:00,46.2,37.0,30.05,NNE,13,0.0,0.0,70,0.00,,,0.00,Wunderground v.1.15,2013-11-12 00:32:00,
2013-11-11 19:37:00,46.1,36.5,30.05,NNE,13,0.0,0.0,69,0.00,,,0.00,Wunderground v.1.15,2013-11-12 00:37:00,
2013-11-11 19:43:00,45.9,36.7,30.04,NNE,13,0.0,0.0,70,0.00,,,0.00,Wunderground v.1.15,2013-11-12 00:43:00,
2013-11-11 19:48:00,45.8,36.6,30.04,NNE,13,0.0,1.0,70,0.00,,,0.00,Wunderground v.1.15,2013-11-12 00:48:00,
2013-11-11 19:54:00,45.5,36.3,30.04,NNE,13,0.0,1.0,70,0.00,,,0.00,Wunderground v.1.15,2013-11-12 00:54:00,
2013-11-11 20:00:00,44.8,36.3,30.04,NNE,13,0.0,0.0,72,0.00,,,0.00,Wunderground v.1.15,2013-11-12 01:00:00,
2013-11-11 20:08:00,44.1,35.6,30.04,NNE,13,0.0,0.0,72,0.00,,,0.00,Wunderground v.1.15,2013-11-12 01:08:00,
2013-11-11 20:16:00,43.5,35.4,30.03,NNE,13,0.0,0.0,73,0.00,,,0.00,Wunderground v.1.15,2013-11-12 01:16:00,
2013-11-11 20:22:00,43.0,35.3,30.03,NNE,13,0.0,0.0,74,0.00,,,0.00,Wunderground v.1.15,2013-11-12 01:22:00,
2013-11-11 20:30:00,42.5,35.5,30.03,NNE,13,0.0,0.0,76,0.00,,,0.00,Wunderground v.1.15,2013-11-12 01:30:00,
2013-11-11 20:36:00,42.1,34.7,30.03,NNE,13,0.0,0.0,75,0.00,,,0.00,Wunderground v.1.15,2013-11-12 01:36:00,
2013-11-11 20:42:00,41.9,35.2,30.03,NNE,13,0.0,0.0,77,0.00,,,0.00,Wunderground v.1.15,2013-11-12 01:42:00,
2013-11-11 20:47:00,41.7,35.0,30.03,NNE,13,0.0,1.0,77,0.00,,,0.00,weatherlink.com 1.10,2013-11-12 01:47:00,
2013-11-11 20:52:00,41.6,34.9,30.03,NNE,13,0.0,0.0,77,0.00,,,0.00,Wunderground v.1.15,2013-11-12 01:52:00,
2013-11-11 20:58:00,41.6,34.9,30.03,NNE,13,0.0,0.0,77,0.00,,,0.00,Wunderground v.1.15,2013-11-12 01:58:00,
2013-11-11 21:03:00,41.5,35.2,30.03,NNE,13,0.0,1.0,78,0.00,,,0.00,Wunderground v.1.15,2013-11-12 02:03:00,
2013-11-11 21:08:00,41.5,35.2,30.03,NNE,13,0.0,1.0,78,0.00,,,0.00,Wunderground v.1.15,2013-11-12 02:08:00,
2013-11-11 21:14:00,41.6,34.9,30.03,NNE,13,0.0,1.0,77,0.00,,,0.00,Wunderground v.1.15,2013-11-12 02:14:00,
2013-11-11 21:19:00,41.7,35.0,30.03,NNE,13,0.0,1.0,77,0.00,,,0.00,Wunderground v.1.15,2013-11-12 02:19:00,
2013-11-11 21:25:00,41.5,35.2,30.03,NNE,13,0.0,1.0,78,0.00,,,0.00,Wunderground v.1.15,2013-11-12 02:25:00,
2013-11-11 21:30:00,41.2,35.2,30.03,NNE,13,0.0,0.0,79,0.00,,,0.00,Wunderground v.1.15,2013-11-12 02:30:00,
2013-11-11 21:35:00,41.2,35.2,30.03,NNE,13,0.0,1.0,79,0.00,,,0.00,Wunderground v.1.15,2013-11-12 02:35:00,
2013-11-11 21:40:00,41.2,35.2,30.03,NNE,13,0.0,0.0,79,0.00,,,0.00,Wunderground v.1.15,2013-11-12 02:40:00,
2013-11-11 21:47:00,41.1,35.1,30.02,NNE,13,0.0,1.0,79,0.00,,,0.00,Wunderground v.1.15,2013-11-12 02:47:00,
2013-11-11 21:57:00,41.1,35.1,30.02,NNE,13,1.0,1.0,79,0.00,,,0.00,Wunderground v.1.15,2013-11-12 02:57:00,
2013-11-11 22:03:00,41.2,35.0,30.02,NNE,16,1.0,2.0,78,0.00,,,0.00,weatherlink.com 1.10,2013-11-12 03:03:00,
2013-11-11 22:08:00,41.3,34.6,30.02,NNE,31,1.0,1.0,77,0.00,,,0.00,Wunderground v.1.15,2013-11-12 03:08:00,
2013-11-11 22:13:00,41.2,34.5,30.02,ENE,76,1.0,1.0,77,0.00,,,0.00,Wunderground v.1.15,2013-11-12 03:13:00,
2013-11-11 22:18:00,41.0,34.3,30.02,ENE,76,0.0,1.0,77,0.00,,,0.00,Wunderground v.1.15,2013-11-12 03:18:00,
2013-11-11 22:24:00,40.8,34.5,30.02,ENE,76,0.0,0.0,78,0.00,,,0.00,Wunderground v.1.15,2013-11-12 03:24:00,
2013-11-11 22:30:00,40.6,34.6,30.02,ENE,76,0.0,0.0,79,0.00,,,0.00,Wunderground v.1.15,2013-11-12 03:30:00,
2013-11-11 22:37:00,40.4,35.0,30.02,ENE,76,0.0,1.0,80,0.00,,,0.00,weatherlink.com 1.10,2013-11-12 03:37:00,
2013-11-11 22:43:00,40.5,34.2,30.02,ENE,76,0.0,1.0,78,0.00,,,0.00,Wunderground v.1.15,2013-11-12 03:43:00,
2013-11-11 22:49:00,41.1,34.1,30.02,South,169,1.0,1.0,76,0.00,,,0.00,Wunderground v.1.15,2013-11-12 03:49:00,
2013-11-11 22:54:00,41.3,34.3,30.02,SSE,168,1.0,1.0,76,0.00,,,0.00,Wunderground v.1.15,2013-11-12 03:54:00,
2013-11-11 23:00:00,41.4,33.7,30.02,South,173,1.0,1.0,74,0.00,,,0.00,Wunderground v.1.15,2013-11-12 04:00:00,
2013-11-11 23:06:00,41.4,34.7,30.02,South,173,1.0,2.0,77,0.00,,,0.00,Wunderground v.1.15,2013-11-12 04:06:00,
2013-11-11 23:11:00,41.1,35.1,30.02,South,173,1.0,1.0,79,0.00,,,0.00,Wunderground v.1.15,2013-11-12 04:11:00,
2013-11-11 23:17:00,40.9,35.2,30.02,South,173,1.0,1.0,80,0.00,,,0.00,Wunderground v.1.15,2013-11-12 04:17:00,
2013-11-11 23:22:00,40.9,34.9,30.02,South,173,0.0,0.0,79,0.00,,,0.00,Wunderground v.1.15,2013-11-12 04:22:00,
2013-11-11 23:28:00,41.0,35.0,30.02,South,173,0.0,1.0,79,0.00,,,0.00,Wunderground v.1.15,2013-11-12 04:28:00,
2013-11-11 23:33:00,41.1,34.8,30.02,South,173,0.0,1.0,78,0.00,,,0.00,Wunderground v.1.15,2013-11-12 04:33:00,
2013-11-11 23:39:00,41.1,34.8,30.02,South,173,0.0,1.0,78,0.00,,,0.00,Wunderground v.1.15,2013-11-12 04:39:00,
2013-11-11 23:44:00,41.1,35.1,30.02,South,173,0.0,0.0,79,0.00,,,0.00,Wunderground v.1.15,2013-11-12 04:44:00,
2013-11-11 23:49:00,41.1,34.8,30.03,South,173,0.0,1.0,78,0.00,,,0.00,Wunderground v.1.15,2013-11-12 04:49:00,
2013-11-11 23:55:00,41.1,35.1,30.02,South,173,0.0,1.0,79,0.00,,,0.00,Wunderground v.1.15,2013-11-12 04:55:00,